createdAt,value
2017-07-16T00:00:52.634Z,3.20
2017-07-16T00:03:21.101Z,2.90
2017-07-16T00:05:48.645Z,7.07
2017-07-16T00:08:16.165Z,2.73
2017-07-16T00:10:43.714Z,2.77
2017-07-16T00:13:11.308Z,3.03
2017-07-16T00:15:38.853Z,2.97
2017-07-16T00:18:06.393Z,2.57
2017-07-16T00:20:34.081Z,2.90
2017-07-16T00:23:01.655Z,3.00
2017-07-16T00:25:29.172Z,2.67
2017-07-16T00:27:56.693Z,2.70
2017-07-16T00:30:24.437Z,3.13
2017-07-16T00:32:51.973Z,3.40
2017-07-16T00:35:19.580Z,3.53
2017-07-16T00:37:47.150Z,2.97
2017-07-16T00:40:15.555Z,4.00
2017-07-16T00:42:43.897Z,3.17
2017-07-16T00:45:11.461Z,2.93
2017-07-16T00:47:38.972Z,3.70
2017-07-16T00:50:06.520Z,3.97
2017-07-16T00:52:34.932Z,3.93
2017-07-16T00:55:02.509Z,3.70
2017-07-16T00:57:30.033Z,4.47
2017-07-16T00:59:57.589Z,3.50
2017-07-16T01:02:25.136Z,4.60
2017-07-16T01:04:52.697Z,5.33
2017-07-16T01:07:20.973Z,3.80
2017-07-16T01:09:49.301Z,3.50
2017-07-16T01:12:16.816Z,3.50
2017-07-16T01:14:44.353Z,4.00
2017-07-16T01:17:11.984Z,5.83
2017-07-16T01:19:39.543Z,3.43
2017-07-16T01:22:07.055Z,3.40
2017-07-16T01:24:35.620Z,4.27
2017-07-16T01:27:03.320Z,3.67
2017-07-16T01:29:30.836Z,3.50
2017-07-16T01:31:58.534Z,3.30
2017-07-16T01:34:26.236Z,3.83
2017-07-16T01:36:53.784Z,4.27
2017-07-16T01:39:21.377Z,4.07
2017-07-16T01:41:48.940Z,3.43
2017-07-16T01:44:16.456Z,3.40
2017-07-16T01:46:44.071Z,3.50
2017-07-16T01:49:11.796Z,3.43
2017-07-16T01:51:39.356Z,3.60
2017-07-16T01:54:06.917Z,3.50
2017-07-16T01:56:34.438Z,3.53
2017-07-16T01:59:01.963Z,3.73
2017-07-16T02:01:29.521Z,3.70
2017-07-16T02:03:57.221Z,3.83
2017-07-16T02:06:25.513Z,4.33
2017-07-16T02:08:53.084Z,3.70
2017-07-16T02:11:20.610Z,3.83
2017-07-16T02:13:48.908Z,4.60
2017-07-16T02:16:16.698Z,4.23
2017-07-16T02:18:44.414Z,9.30
2017-07-16T02:21:12.738Z,4.63
2017-07-16T02:23:40.264Z,3.60
2017-07-16T02:26:08.604Z,4.17
2017-07-16T02:28:36.121Z,6.03
2017-07-16T02:31:03.852Z,4.63
2017-07-16T02:33:31.441Z,4.67
2017-07-16T02:35:59.076Z,3.80
2017-07-16T02:38:26.696Z,4.47
2017-07-16T02:40:54.518Z,4.40
2017-07-16T02:43:22.845Z,4.67
2017-07-16T02:45:50.556Z,4.73
2017-07-16T02:48:18.893Z,7.70
2017-07-16T02:50:46.433Z,4.97
2017-07-16T02:53:13.950Z,4.57
2017-07-16T02:55:42.376Z,4.67
2017-07-16T02:58:09.893Z,4.73
2017-07-16T03:00:38.301Z,4.60
2017-07-16T03:03:05.898Z,4.60
2017-07-16T03:05:33.420Z,4.53
2017-07-16T03:08:00.940Z,5.30
2017-07-16T03:10:28.506Z,5.63
2017-07-16T03:12:56.028Z,5.30
2017-07-16T03:15:23.723Z,5.10
2017-07-16T03:17:51.374Z,5.43
2017-07-16T03:20:18.941Z,6.17
2017-07-16T03:22:46.506Z,5.57
2017-07-16T03:25:37.617Z,6.00
2017-07-16T03:28:05.126Z,6.03
2017-07-16T03:30:32.653Z,4.47
2017-07-16T03:33:00.991Z,4.70
2017-07-16T03:35:28.590Z,4.83
2017-07-16T03:37:56.885Z,5.37
2017-07-16T03:40:25.281Z,5.20
2017-07-16T03:42:53.013Z,5.20
2017-07-16T03:45:20.524Z,6.10
2017-07-16T03:47:48.116Z,6.23
2017-07-16T03:50:15.729Z,4.97
2017-07-16T03:52:43.512Z,5.47
2017-07-16T03:55:11.186Z,6.13
2017-07-16T03:57:38.759Z,4.27
2017-07-16T04:00:06.377Z,4.70
2017-07-16T04:02:33.947Z,4.50
2017-07-16T04:05:01.503Z,4.63
2017-07-16T04:07:29.016Z,5.13
2017-07-16T04:09:56.629Z,4.50
2017-07-16T04:12:24.141Z,4.30
2017-07-16T04:14:51.674Z,6.30
2017-07-16T04:17:19.242Z,4.57
2017-07-16T04:19:46.784Z,5.43
2017-07-16T04:22:14.300Z,4.90
2017-07-16T04:24:42.627Z,4.50
2017-07-16T04:27:10.153Z,4.97
2017-07-16T04:29:37.673Z,5.17
2017-07-16T04:32:05.245Z,5.23
2017-07-16T04:34:32.822Z,5.07
2017-07-16T04:37:00.487Z,5.30
2017-07-16T04:39:28.804Z,5.53
2017-07-16T04:41:56.326Z,4.90
2017-07-16T04:44:24.644Z,4.80
2017-07-16T04:46:52.237Z,5.00
2017-07-16T04:49:19.833Z,4.53
2017-07-16T04:51:47.422Z,4.20
2017-07-16T04:54:14.944Z,3.83
2017-07-16T04:56:43.262Z,4.03
2017-07-16T04:59:10.816Z,3.70
2017-07-16T05:01:38.484Z,3.67
2017-07-16T05:04:06.090Z,3.70
2017-07-16T05:06:33.640Z,4.77
2017-07-16T05:09:01.197Z,3.60
2017-07-16T05:11:28.708Z,3.77
2017-07-16T05:13:56.335Z,3.63
2017-07-16T05:16:23.893Z,3.87
2017-07-16T05:18:51.411Z,3.80
2017-07-16T05:21:18.932Z,3.93
2017-07-16T05:23:46.546Z,3.43
2017-07-16T05:26:14.112Z,5.00
2017-07-16T05:28:41.629Z,4.10
2017-07-16T05:31:09.480Z,3.20
2017-07-16T05:33:37.754Z,3.67
2017-07-16T05:36:06.065Z,3.73
2017-07-16T05:38:33.667Z,3.20
2017-07-16T05:41:01.248Z,3.23
2017-07-16T05:43:28.986Z,3.50
2017-07-16T05:45:56.549Z,3.50
2017-07-16T05:48:24.064Z,3.03
2017-07-16T05:50:51.657Z,3.40
2017-07-16T05:53:19.212Z,3.90
2017-07-16T05:55:46.763Z,3.37
2017-07-16T05:58:14.381Z,3.27
2017-07-16T06:00:41.900Z,3.53
2017-07-16T06:03:09.515Z,3.80
2017-07-16T06:05:37.085Z,3.50
2017-07-16T06:08:04.680Z,3.67
2017-07-16T06:10:32.232Z,3.47
2017-07-16T06:13:00.356Z,5.03
2017-07-16T06:15:27.882Z,3.17
2017-07-16T06:17:55.530Z,3.30
2017-07-16T06:20:23.101Z,3.50
2017-07-16T06:22:50.750Z,3.37
2017-07-16T06:25:18.310Z,3.43
2017-07-16T06:27:45.894Z,3.40
2017-07-16T06:30:13.499Z,3.10
2017-07-16T06:32:41.169Z,3.07
2017-07-16T06:35:08.754Z,3.10
2017-07-16T06:37:36.411Z,3.00
2017-07-16T06:40:03.983Z,3.60
2017-07-16T06:42:31.545Z,3.13
2017-07-16T06:44:59.073Z,3.87
2017-07-16T06:47:26.625Z,3.03
2017-07-16T06:49:54.933Z,3.23
2017-07-16T06:52:22.504Z,2.83
2017-07-16T06:54:50.078Z,3.13
2017-07-16T06:57:17.714Z,3.00
2017-07-16T06:59:45.246Z,2.67
2017-07-16T07:02:12.832Z,2.53
2017-07-16T07:04:40.472Z,3.10
2017-07-16T07:07:08.026Z,3.23
2017-07-16T07:09:36.356Z,3.30
2017-07-16T07:12:03.981Z,2.33
2017-07-16T07:14:31.497Z,3.03
2017-07-16T07:16:59.073Z,2.40
2017-07-16T07:19:26.596Z,2.83
2017-07-16T07:21:54.115Z,2.90
2017-07-16T07:24:22.463Z,2.30
2017-07-16T07:26:49.984Z,2.40
2017-07-16T07:29:17.591Z,2.40
2017-07-16T07:31:45.140Z,2.87
2017-07-16T07:34:12.657Z,2.40
2017-07-16T07:36:40.243Z,2.20
2017-07-16T07:39:08.697Z,2.00
2017-07-16T07:41:36.241Z,2.10
2017-07-16T07:44:04.555Z,2.70
2017-07-16T07:46:32.092Z,2.63
2017-07-16T07:48:59.656Z,4.13
2017-07-16T07:51:27.321Z,2.13
2017-07-16T07:53:57.355Z,2.10
2017-07-16T07:56:29.889Z,2.00
2017-07-16T07:58:57.613Z,1.90
2017-07-16T08:01:26.640Z,2.30
2017-07-16T08:03:55.004Z,2.17
2017-07-16T08:06:22.657Z,3.07
2017-07-16T08:08:50.326Z,1.70
2017-07-16T08:11:18.748Z,1.80
2017-07-16T08:13:47.325Z,2.07
2017-07-16T08:16:17.190Z,1.90
2017-07-16T08:18:46.242Z,2.40
2017-07-16T08:21:14.013Z,2.00
2017-07-16T08:23:44.789Z,2.33
2017-07-16T08:26:12.771Z,1.90
2017-07-16T08:28:41.831Z,1.87
2017-07-16T08:31:10.283Z,2.60
2017-07-16T08:33:40.152Z,3.27
2017-07-16T08:36:08.877Z,2.73
2017-07-16T08:38:38.537Z,1.37
2017-07-16T08:41:08.316Z,2.23
2017-07-16T08:43:38.663Z,1.60
2017-07-16T08:46:07.849Z,1.40
2017-07-16T08:48:36.124Z,1.50
2017-07-16T08:51:04.730Z,1.20
2017-07-16T08:53:32.897Z,1.10
2017-07-16T08:56:01.087Z,1.50
2017-07-16T08:58:29.349Z,1.83
2017-07-16T09:00:57.654Z,1.13
2017-07-16T09:03:26.142Z,1.50
2017-07-16T09:05:54.427Z,1.30
2017-07-16T09:08:22.623Z,1.10
2017-07-16T09:10:51.301Z,1.60
2017-07-16T09:13:19.658Z,2.87
2017-07-16T09:15:48.971Z,1.37
2017-07-16T09:18:18.625Z,1.40
2017-07-16T09:20:50.024Z,1.50
2017-07-16T09:23:19.253Z,1.47
2017-07-16T09:25:47.850Z,1.33
2017-07-16T09:28:16.939Z,1.20
2017-07-16T09:30:45.911Z,1.37
2017-07-16T09:33:16.823Z,3.23
2017-07-16T09:35:46.025Z,1.50
2017-07-16T09:38:14.229Z,2.20
2017-07-16T09:40:43.279Z,1.60
2017-07-16T09:43:12.654Z,1.57
2017-07-16T09:45:42.189Z,1.90
2017-07-16T09:50:59.650Z,1.50
2017-07-16T09:53:27.802Z,0.80
2017-07-16T09:55:55.994Z,1.40
2017-07-16T09:58:24.149Z,1.13
2017-07-16T10:00:52.263Z,1.37
2017-07-16T10:03:21.889Z,2.20
2017-07-16T10:05:50.990Z,1.10
2017-07-16T10:08:24.478Z,1.27
2017-07-16T10:10:54.949Z,1.67
2017-07-16T10:13:24.246Z,1.43
2017-07-16T10:15:54.392Z,1.10
2017-07-16T10:18:24.349Z,1.37
2017-07-16T10:20:53.904Z,1.40
2017-07-16T10:23:22.197Z,2.20
2017-07-16T10:25:52.057Z,1.27
2017-07-16T10:28:21.363Z,1.00
2017-07-16T10:30:50.779Z,1.90
2017-07-16T10:33:19.545Z,1.63
2017-07-16T10:35:47.745Z,1.10
2017-07-16T10:38:16.578Z,2.37
2017-07-16T10:40:44.785Z,1.70
2017-07-16T10:43:13.474Z,1.30
2017-07-16T10:45:43.113Z,1.40
2017-07-16T10:48:13.179Z,1.00
2017-07-16T10:50:41.437Z,1.10
2017-07-16T10:53:10.057Z,1.20
2017-07-16T10:55:38.628Z,0.90
2017-07-16T10:58:08.868Z,1.87
2017-07-16T11:00:37.268Z,1.20
2017-07-16T11:03:06.988Z,1.20
2017-07-16T11:05:35.454Z,3.17
2017-07-16T11:08:04.814Z,1.10
2017-07-16T11:10:34.719Z,1.20
2017-07-16T11:13:02.858Z,1.00
2017-07-16T11:15:31.155Z,1.70
2017-07-16T11:18:00.356Z,1.37
2017-07-16T11:20:29.286Z,1.27
2017-07-16T11:22:58.178Z,1.40
2017-07-16T11:25:27.175Z,0.93
2017-07-16T11:27:55.151Z,1.10
2017-07-16T11:30:23.471Z,1.30
2017-07-16T11:32:52.375Z,1.30
2017-07-16T11:35:21.833Z,1.20
2017-07-16T11:37:50.958Z,2.00
2017-07-16T11:40:19.955Z,1.37
2017-07-16T11:42:49.185Z,1.07
2017-07-16T11:45:17.902Z,1.60
2017-07-16T11:47:48.349Z,1.13
2017-07-16T11:50:16.786Z,1.00
2017-07-16T11:52:45.033Z,1.73
2017-07-16T11:55:14.174Z,1.10
2017-07-16T11:57:42.602Z,2.13
2017-07-16T12:00:10.839Z,0.97
2017-07-16T12:02:39.410Z,1.23
2017-07-16T12:05:07.752Z,1.13
2017-07-16T12:07:36.545Z,1.20
2017-07-16T12:10:04.780Z,1.20
2017-07-16T12:12:33.365Z,1.93
2017-07-16T12:15:01.458Z,0.93
2017-07-16T12:17:29.107Z,1.13
2017-07-16T12:19:56.796Z,1.00
2017-07-16T12:22:24.361Z,0.90
2017-07-16T12:24:51.876Z,1.20
2017-07-16T12:27:19.388Z,1.63
2017-07-16T12:29:47.061Z,2.10
2017-07-16T12:32:14.722Z,1.10
2017-07-16T12:34:42.240Z,1.50
2017-07-16T12:37:10.469Z,2.60
2017-07-16T12:39:37.988Z,1.60
2017-07-16T12:42:06.827Z,1.40
2017-07-16T12:44:34.384Z,1.30
2017-07-16T12:47:01.937Z,1.20
2017-07-16T12:49:29.469Z,1.47
2017-07-16T12:51:57.956Z,1.30
2017-07-16T12:54:25.477Z,1.30
2017-07-16T12:56:53.047Z,1.20
2017-07-16T12:59:20.592Z,1.47
2017-07-16T13:01:48.156Z,1.33
2017-07-16T13:04:15.670Z,1.50
2017-07-16T13:06:43.184Z,1.40
2017-07-16T13:09:10.728Z,1.57
2017-07-16T13:11:38.296Z,1.50
2017-07-16T13:14:05.809Z,1.23
2017-07-16T13:16:33.339Z,1.57
2017-07-16T13:19:00.894Z,2.97
2017-07-16T13:21:29.173Z,1.20
2017-07-16T13:23:57.487Z,2.40
2017-07-16T13:26:25.064Z,2.60
2017-07-16T13:28:52.585Z,1.53
2017-07-16T13:31:20.895Z,1.37
2017-07-16T13:33:48.452Z,1.13
2017-07-16T13:36:15.965Z,1.20
2017-07-16T13:38:44.258Z,1.57
2017-07-16T13:41:12.628Z,2.20
2017-07-16T13:43:41.090Z,1.27
2017-07-16T13:46:08.717Z,2.30
2017-07-16T13:48:37.088Z,0.90
2017-07-16T13:51:04.742Z,1.30
2017-07-16T13:53:32.270Z,1.67
2017-07-16T13:56:00.572Z,1.20
2017-07-16T13:58:28.131Z,0.93
2017-07-16T14:00:55.858Z,1.20
2017-07-16T14:03:23.372Z,1.50
2017-07-16T14:05:50.952Z,1.23
2017-07-16T14:08:18.560Z,1.10
2017-07-16T14:10:46.864Z,1.37
2017-07-16T14:13:14.417Z,2.03
2017-07-16T14:15:41.944Z,1.20
2017-07-16T14:18:09.465Z,1.40
2017-07-16T14:20:37.017Z,1.70
2017-07-16T14:23:04.547Z,1.50
2017-07-16T14:25:32.137Z,1.20
2017-07-16T14:27:59.654Z,1.90
2017-07-16T14:30:27.298Z,1.30
2017-07-16T14:32:54.852Z,1.33
2017-07-16T14:35:22.457Z,1.20
2017-07-16T14:37:49.976Z,0.97
2017-07-16T14:40:17.492Z,1.87
2017-07-16T14:42:45.050Z,4.70
2017-07-16T14:45:12.578Z,4.30
2017-07-16T14:47:40.095Z,1.30
2017-07-16T14:50:07.667Z,2.30
2017-07-16T14:52:35.184Z,1.00
2017-07-16T14:55:02.703Z,1.17
2017-07-16T14:57:30.260Z,1.17
2017-07-16T14:59:57.773Z,1.30
2017-07-16T15:02:26.052Z,0.80
2017-07-16T15:04:53.602Z,0.90
2017-07-16T15:07:21.225Z,2.30
2017-07-16T15:09:48.955Z,2.80
2017-07-16T15:12:16.505Z,1.10
2017-07-16T15:14:44.029Z,0.90
2017-07-16T15:17:12.093Z,1.20
2017-07-16T15:19:40.465Z,1.13
2017-07-16T15:22:08.175Z,1.03
2017-07-16T15:24:35.704Z,1.73
2017-07-16T15:27:03.985Z,1.57
2017-07-16T15:29:31.593Z,1.30
2017-07-16T15:31:59.108Z,3.63
2017-07-16T15:34:26.629Z,1.13
2017-07-16T15:36:54.365Z,1.50
2017-07-16T15:39:21.909Z,1.40
2017-07-16T15:41:49.524Z,1.50
2017-07-16T15:44:17.231Z,1.13
2017-07-16T15:46:44.804Z,0.90
2017-07-16T15:49:12.377Z,1.40
2017-07-16T15:51:39.904Z,1.40
2017-07-16T15:54:07.472Z,1.50
2017-07-16T15:56:35.140Z,1.50
2017-07-16T15:59:02.697Z,1.33
2017-07-16T16:01:30.223Z,1.40
2017-07-16T16:03:57.794Z,1.27
2017-07-16T16:06:25.426Z,1.03
2017-07-16T16:08:53.054Z,1.73
2017-07-16T16:11:20.828Z,1.00
2017-07-16T16:13:48.381Z,1.10
2017-07-16T16:16:15.904Z,1.20
2017-07-16T16:18:44.253Z,0.90
2017-07-16T16:21:11.764Z,1.27
2017-07-16T16:23:39.286Z,1.20
2017-07-16T16:26:06.830Z,1.03
2017-07-16T16:28:34.459Z,1.20
2017-07-16T16:31:02.019Z,2.50
2017-07-16T16:33:29.835Z,1.30
2017-07-16T16:35:57.393Z,1.10
2017-07-16T16:38:24.937Z,1.63
2017-07-16T16:40:53.343Z,1.17
2017-07-16T16:43:20.914Z,1.37
2017-07-16T16:45:49.258Z,1.23
2017-07-16T16:48:16.839Z,1.17
2017-07-16T16:50:44.363Z,2.57
2017-07-16T16:53:12.000Z,1.53
2017-07-16T16:55:39.525Z,2.40
2017-07-16T16:58:07.821Z,2.07
2017-07-16T17:00:36.188Z,1.50
2017-07-16T17:03:03.817Z,1.87
2017-07-16T17:05:31.342Z,1.60
2017-07-16T17:07:59.003Z,1.20
2017-07-16T17:10:26.516Z,1.13
2017-07-16T17:12:54.025Z,1.40
2017-07-16T17:15:21.593Z,1.00
2017-07-16T17:17:49.162Z,2.60
2017-07-16T17:20:16.681Z,1.00
2017-07-16T17:22:45.001Z,1.47
2017-07-16T17:25:12.668Z,1.37
2017-07-16T17:27:40.184Z,1.20
2017-07-16T17:30:08.583Z,1.30
2017-07-16T17:32:36.164Z,1.30
2017-07-16T17:35:03.803Z,1.30
2017-07-16T17:37:31.361Z,1.13
2017-07-16T17:39:59.688Z,1.83
2017-07-16T17:42:27.211Z,3.47
2017-07-16T17:44:54.731Z,1.27
2017-07-16T17:47:22.342Z,1.27
2017-07-16T17:49:50.087Z,1.00
2017-07-16T17:52:18.882Z,2.90
2017-07-16T17:57:25.848Z,1.07
2017-07-16T17:59:53.595Z,3.30
2017-07-16T18:02:21.921Z,1.30
2017-07-16T18:04:49.589Z,1.23
2017-07-16T18:07:17.112Z,1.00
2017-07-16T18:09:44.627Z,1.30
2017-07-16T18:12:12.189Z,1.53
2017-07-16T18:14:39.707Z,1.40
2017-07-16T18:17:07.986Z,1.30
2017-07-16T18:19:36.408Z,1.23
2017-07-16T18:22:04.007Z,1.77
2017-07-16T18:24:31.552Z,2.10
2017-07-16T18:26:59.105Z,1.50
2017-07-16T18:29:26.637Z,1.43
2017-07-16T18:31:54.154Z,1.70
2017-07-16T18:34:21.717Z,1.27
2017-07-16T18:36:49.296Z,1.70
2017-07-16T18:39:16.845Z,1.47
2017-07-16T18:41:45.239Z,2.20
2017-07-16T18:44:13.522Z,1.73
2017-07-16T18:46:41.319Z,1.33
2017-07-16T18:49:09.740Z,1.97
2017-07-16T18:51:37.273Z,1.30
2017-07-16T18:54:04.799Z,1.73
2017-07-16T18:56:32.377Z,1.73
2017-07-16T18:58:59.960Z,1.70
2017-07-16T19:01:27.499Z,1.50
2017-07-16T19:03:55.094Z,1.80
2017-07-16T19:06:22.627Z,2.33
2017-07-16T19:08:50.183Z,2.83
2017-07-16T19:11:17.708Z,1.70
2017-07-16T19:13:45.276Z,1.97
2017-07-16T19:16:12.812Z,1.60
2017-07-16T19:18:40.353Z,1.70
2017-07-16T19:21:07.912Z,1.60
2017-07-16T19:23:35.443Z,2.03
2017-07-16T19:26:02.972Z,1.60
2017-07-16T19:28:30.534Z,2.83
2017-07-16T19:30:58.083Z,1.67
2017-07-16T19:33:25.643Z,1.53
2017-07-16T19:35:53.927Z,2.30
2017-07-16T19:38:21.533Z,1.93
2017-07-16T19:40:49.046Z,2.00
2017-07-16T19:43:17.325Z,1.90
2017-07-16T19:45:44.889Z,1.87
2017-07-16T19:48:12.405Z,1.83
2017-07-16T19:50:39.980Z,1.60
2017-07-16T19:53:07.539Z,1.73
2017-07-16T19:55:35.089Z,2.30
2017-07-16T19:58:02.600Z,1.80
2017-07-16T20:00:30.198Z,1.50
2017-07-16T20:02:57.778Z,1.97
2017-07-16T20:05:25.301Z,1.90
2017-07-16T20:07:53.023Z,1.50
2017-07-16T20:10:21.342Z,1.13
2017-07-16T20:12:48.862Z,1.80
2017-07-16T20:15:17.146Z,1.70
2017-07-16T20:17:44.707Z,2.27
2017-07-16T20:20:12.224Z,2.33
2017-07-16T20:22:39.737Z,1.80
2017-07-16T20:25:07.281Z,1.50
2017-07-16T20:27:35.593Z,1.70
2017-07-16T20:30:03.141Z,1.80
2017-07-16T20:32:30.656Z,1.90
2017-07-16T20:34:58.165Z,2.30
2017-07-16T20:37:25.792Z,1.90
2017-07-16T20:39:54.245Z,2.90
2017-07-16T20:42:21.784Z,2.20
2017-07-16T20:44:49.294Z,1.83
2017-07-16T20:47:17.651Z,1.70
2017-07-16T20:49:45.206Z,1.70
2017-07-16T20:52:12.721Z,1.90
2017-07-16T20:54:40.273Z,1.90
2017-07-16T20:57:07.796Z,2.50
2017-07-16T20:59:35.332Z,2.03
2017-07-16T21:02:02.884Z,1.63
2017-07-16T21:04:30.436Z,1.63
2017-07-16T21:06:57.977Z,1.97
2017-07-16T21:09:25.520Z,2.90
2017-07-16T21:11:53.212Z,2.17
2017-07-16T21:14:20.772Z,1.97
2017-07-16T21:16:48.295Z,2.20
2017-07-16T21:19:15.814Z,1.70
2017-07-16T21:21:43.379Z,2.90
2017-07-16T21:24:10.888Z,3.57
2017-07-16T21:26:38.416Z,6.43
2017-07-16T21:29:05.959Z,2.50
2017-07-16T21:31:33.541Z,2.10
2017-07-16T21:34:01.857Z,2.03
2017-07-16T21:36:31.208Z,2.30
2017-07-16T21:39:00.595Z,2.00
2017-07-16T21:41:28.808Z,3.60
2017-07-16T21:43:58.119Z,2.30
2017-07-16T21:46:26.370Z,1.90
2017-07-16T21:48:55.823Z,3.57
2017-07-16T21:51:24.414Z,1.93
2017-07-16T21:53:52.522Z,2.30
2017-07-16T21:56:20.878Z,2.47
2017-07-16T21:58:49.829Z,2.20
2017-07-16T22:01:17.951Z,2.17
2017-07-16T22:03:45.893Z,2.27
2017-07-16T22:06:14.082Z,2.63
2017-07-16T22:08:42.079Z,2.53
2017-07-16T22:11:10.276Z,1.97
2017-07-16T22:13:38.435Z,2.27
2017-07-16T22:16:06.849Z,2.43
2017-07-16T22:18:35.062Z,2.60
2017-07-16T22:21:03.050Z,2.47
2017-07-16T22:23:31.137Z,3.97
2017-07-16T22:25:59.413Z,2.60
2017-07-16T22:28:27.554Z,2.40
2017-07-16T22:30:55.647Z,2.60
2017-07-16T22:33:24.340Z,2.53
2017-07-16T22:35:52.263Z,2.57
2017-07-16T22:38:20.322Z,2.70
2017-07-16T22:40:48.349Z,2.80
2017-07-16T22:43:16.419Z,4.30
2017-07-16T22:45:44.637Z,2.73
2017-07-16T22:48:13.134Z,2.60
2017-07-16T22:50:41.208Z,2.70
2017-07-16T22:53:09.251Z,5.37
2017-07-16T22:55:38.087Z,2.37
2017-07-16T22:58:06.275Z,2.37
2017-07-16T23:00:34.182Z,2.23
2017-07-16T23:03:03.000Z,2.30
2017-07-16T23:05:31.323Z,2.37
2017-07-16T23:07:59.467Z,3.70
2017-07-16T23:10:27.511Z,2.93
2017-07-16T23:12:56.402Z,2.33
2017-07-16T23:15:24.439Z,2.30
2017-07-16T23:17:53.053Z,2.70
2017-07-16T23:20:21.019Z,1.90
2017-07-16T23:22:49.674Z,2.70
2017-07-16T23:25:17.785Z,2.40
2017-07-16T23:27:45.841Z,2.53
2017-07-16T23:30:13.690Z,2.63
2017-07-16T23:32:41.941Z,2.13
2017-07-16T23:35:09.827Z,2.10
2017-07-16T23:37:38.682Z,2.10
2017-07-16T23:40:06.787Z,2.67
2017-07-16T23:42:34.869Z,2.60
2017-07-16T23:45:02.956Z,2.60
2017-07-16T23:47:31.852Z,3.80
2017-07-16T23:50:00.052Z,3.00
2017-07-16T23:52:28.074Z,2.80
2017-07-16T23:54:56.228Z,2.20
2017-07-16T23:57:24.168Z,2.00
2017-07-16T23:59:52.203Z,2.30
